Terminal Aerodrome Forecast
Issued by NWS

Home | Current Version | Previous Version | Text Only | Print | Product List | Glossary On
Versions: 1 2 3 4 5 6 7 8 9 10 11 12 13 14 15 16 17 18
000
FTUS45 KSLC 200527
TAFOGD
TAF
KOGD 200527Z 2006/2106 17006KT P6SM FEW080 SCT180
     FM201600 33007KT P6SM FEW070 SCT200
     FM210400 17006KT P6SM SKC=

USA.gov is the U.S. government's official web portal to all federal, state and local government web resources and services.